createdAt,value
2022-11-23T00:00:37.676Z,3.30
2022-11-23T00:05:44.846Z,3.30
2022-11-23T00:10:51.646Z,3.30
2022-11-23T00:15:58.824Z,3.30
2022-11-23T00:21:14.570Z,3.30
2022-11-23T00:26:22.420Z,3.20
2022-11-23T00:31:29.255Z,3.20
2022-11-23T00:36:36.163Z,3.20
2022-11-23T00:41:43.332Z,3.20
2022-11-23T00:46:50.111Z,3.20
2022-11-23T00:51:57.088Z,3.10
2022-11-23T00:57:04.211Z,3.10
2022-11-23T01:02:11.396Z,3.10
2022-11-23T01:07:20.036Z,3.20
2022-11-23T01:12:27.182Z,3.20
2022-11-23T01:17:34.025Z,3.30
2022-11-23T01:22:41.142Z,3.30
2022-11-23T01:27:47.927Z,3.20
2022-11-23T01:32:55.003Z,3.30
2022-11-23T01:38:02.093Z,3.20
2022-11-23T01:43:13.430Z,3.30
2022-11-23T01:48:27.582Z,3.30
2022-11-23T01:53:35.471Z,3.20
2022-11-23T01:58:46.036Z,3.20
2022-11-23T02:03:56.092Z,3.20
2022-11-23T02:09:03.731Z,3.20
2022-11-23T02:14:12.990Z,3.20
2022-11-23T02:19:26.932Z,3.20
2022-11-23T02:24:41.121Z,3.20
2022-11-23T02:29:49.847Z,3.20
2022-11-23T02:34:56.498Z,3.20
2022-11-23T02:40:07.016Z,3.20
2022-11-23T02:45:59.645Z,3.20
2022-11-23T02:51:06.423Z,3.10
2022-11-23T02:56:13.099Z,3.20
2022-11-23T03:01:19.917Z,3.20
2022-11-23T03:06:26.904Z,3.20
2022-11-23T03:11:34.159Z,3.30
2022-11-23T03:16:41.858Z,3.30
2022-11-23T03:21:48.586Z,3.30
2022-11-23T03:26:55.349Z,3.30
2022-11-23T03:32:02.137Z,3.30
2022-11-23T03:37:08.938Z,3.20
2022-11-23T03:42:15.767Z,3.20
2022-11-23T03:47:22.523Z,3.10
2022-11-23T03:52:29.222Z,3.20
2022-11-23T03:57:36.058Z,3.30
2022-11-23T04:02:44.124Z,3.20
2022-11-23T04:07:51.839Z,3.10
2022-11-23T04:12:59.247Z,3.20
2022-11-23T04:18:06.668Z,3.30
2022-11-23T04:23:13.879Z,3.20
2022-11-23T04:28:20.992Z,3.20
2022-11-23T04:33:28.308Z,3.20
2022-11-23T04:38:35.799Z,3.10
2022-11-23T04:43:43.204Z,3.10
2022-11-23T04:48:50.900Z,3.10
2022-11-23T04:53:58.096Z,3.20
2022-11-23T04:59:05.093Z,3.20
2022-11-23T05:04:17.594Z,3.20
2022-11-23T05:09:21.940Z,3.30
2022-11-23T05:14:29.002Z,3.10
2022-11-23T05:19:36.088Z,3.20
2022-11-23T05:24:43.220Z,3.20
2022-11-23T05:29:50.139Z,3.20
2022-11-23T05:34:57.098Z,3.20
2022-11-23T05:40:05.529Z,3.20
2022-11-23T05:45:13.001Z,3.20
2022-11-23T05:50:20.333Z,3.10
2022-11-23T05:55:28.166Z,3.20
2022-11-23T06:00:35.051Z,3.00
2022-11-23T06:05:42.370Z,3.10
2022-11-23T06:10:49.247Z,3.20
2022-11-23T06:15:56.163Z,3.00
2022-11-23T06:21:03.984Z,3.10
2022-11-23T06:26:10.888Z,3.00
2022-11-23T06:31:17.928Z,3.00
2022-11-23T06:36:24.723Z,3.20
2022-11-23T06:41:32.675Z,3.20
2022-11-23T06:46:40.327Z,3.20
2022-11-23T06:51:48.492Z,3.20
2022-11-23T06:56:55.291Z,3.10
2022-11-23T07:02:03.876Z,3.20
2022-11-23T07:07:11.387Z,3.10
2022-11-23T07:12:18.530Z,3.20
2022-11-23T07:17:25.832Z,3.20
2022-11-23T07:22:32.747Z,3.30
2022-11-23T07:27:39.523Z,3.50
2022-11-23T07:32:46.627Z,3.60
2022-11-23T07:37:53.492Z,3.50
2022-11-23T07:43:05.348Z,3.60
2022-11-23T07:48:13.208Z,3.70
2022-11-23T07:53:20.185Z,3.70
2022-11-23T07:58:27.407Z,3.70
2022-11-23T08:03:35.001Z,3.70
2022-11-23T08:08:42.771Z,3.70
2022-11-23T08:13:49.502Z,3.70
2022-11-23T08:18:56.719Z,3.70
2022-11-23T08:24:03.784Z,3.70
2022-11-23T08:29:10.817Z,3.70
2022-11-23T08:34:19.233Z,3.50
2022-11-23T08:39:27.043Z,3.60
2022-11-23T08:44:34.891Z,3.60
2022-11-23T08:49:42.108Z,3.70
2022-11-23T08:54:48.963Z,3.70
2022-11-23T08:59:55.889Z,3.60
2022-11-23T09:05:04.129Z,3.70
2022-11-23T09:10:16.559Z,3.60
2022-11-23T09:15:26.309Z,3.70
2022-11-23T09:20:33.230Z,3.80
2022-11-23T09:25:40.236Z,3.90
2022-11-23T09:30:48.371Z,4.00
2022-11-23T09:36:07.072Z,4.00
2022-11-23T09:41:38.750Z,3.90
2022-11-23T09:47:34.791Z,3.90
2022-11-23T09:52:44.337Z,4.00
2022-11-23T09:57:54.879Z,3.90
2022-11-23T10:03:01.724Z,3.90
2022-11-23T10:08:25.616Z,4.10
2022-11-23T10:13:42.215Z,4.10
2022-11-23T10:18:57.623Z,4.10
2022-11-23T10:24:20.394Z,4.10
2022-11-23T10:29:39.244Z,4.40
2022-11-23T10:35:06.009Z,4.50
2022-11-23T10:40:23.463Z,4.30
2022-11-23T10:45:32.068Z,4.40
2022-11-23T10:50:45.210Z,4.50
2022-11-23T10:55:55.858Z,4.50
2022-11-23T11:01:09.586Z,4.60
2022-11-23T11:06:20.906Z,4.60
2022-11-23T11:11:34.966Z,4.50
2022-11-23T11:16:51.212Z,4.70
2022-11-23T11:22:00.412Z,4.70
2022-11-23T11:27:20.332Z,4.70
2022-11-23T11:32:49.765Z,4.90
2022-11-23T11:38:03.451Z,4.70
2022-11-23T11:43:40.018Z,4.70
2022-11-23T11:48:56.548Z,4.90
2022-11-23T11:54:43.529Z,4.90
2022-11-23T11:59:59.275Z,4.80
2022-11-23T12:05:28.912Z,4.80
2022-11-23T12:10:52.141Z,4.90
2022-11-23T12:16:32.654Z,5.10
2022-11-23T12:22:15.216Z,4.90
2022-11-23T12:27:48.464Z,5.00
2022-11-23T12:33:16.344Z,5.10
2022-11-23T12:39:05.780Z,5.10
2022-11-23T12:44:36.283Z,5.20
2022-11-23T12:50:08.060Z,5.10
2022-11-23T12:55:35.126Z,5.20
2022-11-23T13:00:49.766Z,5.20
2022-11-23T13:06:37.237Z,5.40
2022-11-23T13:12:08.521Z,5.30
2022-11-23T13:17:29.051Z,5.30
2022-11-23T13:22:37.334Z,5.40
2022-11-23T13:27:54.951Z,5.40
2022-11-23T13:33:27.639Z,5.20
2022-11-23T13:38:34.962Z,5.30
2022-11-23T13:43:42.085Z,5.10
2022-11-23T13:48:57.150Z,5.20
2022-11-23T13:54:07.395Z,5.30
2022-11-23T13:59:35.174Z,5.20
2022-11-23T14:04:45.510Z,5.00
2022-11-23T14:10:01.151Z,5.30
2022-11-23T14:15:29.776Z,5.40
2022-11-23T14:21:11.010Z,5.30
2022-11-23T14:26:46.076Z,5.30
2022-11-23T14:32:34.593Z,5.10
2022-11-23T14:37:51.731Z,5.00
2022-11-23T14:42:59.906Z,4.90
2022-11-23T14:48:31.816Z,4.80
2022-11-23T14:53:49.581Z,4.70
2022-11-23T14:59:00.825Z,4.50
2022-11-23T15:04:15.456Z,4.20
2022-11-23T15:09:58.043Z,4.10
2022-11-23T15:15:06.606Z,4.00
2022-11-23T15:20:14.443Z,3.80
2022-11-23T15:25:22.053Z,3.70
2022-11-23T15:30:32.376Z,3.60
2022-11-23T15:35:40.922Z,3.60
2022-11-23T15:40:50.560Z,3.60
2022-11-23T15:46:04.818Z,3.70
2022-11-23T15:51:14.588Z,3.60
2022-11-23T15:56:28.912Z,3.50
2022-11-23T16:01:36.202Z,3.50
2022-11-23T16:06:46.331Z,3.40
2022-11-23T16:11:53.677Z,3.40
2022-11-23T16:17:22.866Z,3.50
2022-11-23T16:22:37.478Z,3.60
2022-11-23T16:27:45.282Z,3.60
2022-11-23T16:32:52.574Z,3.70
2022-11-23T16:37:59.792Z,3.70
2022-11-23T16:43:08.725Z,3.60
2022-11-23T16:48:33.153Z,3.60
2022-11-23T16:54:08.190Z,3.50
2022-11-23T16:58:49.314Z,3.50
2022-11-23T17:03:56.605Z,3.40
2022-11-23T17:09:08.196Z,3.50
2022-11-23T17:14:19.209Z,3.50
2022-11-23T17:19:25.944Z,3.40
2022-11-23T17:24:33.302Z,3.40
2022-11-23T17:29:42.141Z,3.40
2022-11-23T17:34:49.051Z,3.40
2022-11-23T17:39:56.086Z,3.40
2022-11-23T17:45:04.038Z,3.50
2022-11-23T17:50:14.579Z,3.30
2022-11-23T17:55:23.008Z,3.40
2022-11-23T18:00:31.478Z,3.30
2022-11-23T18:05:38.370Z,3.30
2022-11-23T18:10:45.999Z,3.30
2022-11-23T18:15:53.266Z,3.40
2022-11-23T18:21:01.061Z,3.40
2022-11-23T18:26:23.242Z,3.30
2022-11-23T18:31:30.537Z,3.30
2022-11-23T18:36:37.650Z,3.30
2022-11-23T18:41:45.035Z,3.30
2022-11-23T18:46:53.785Z,3.20
2022-11-23T18:52:00.820Z,3.20
2022-11-23T18:57:08.575Z,3.10
2022-11-23T19:02:15.810Z,3.10
2022-11-23T19:07:26.815Z,3.10
2022-11-23T19:12:31.675Z,3.10
2022-11-23T19:17:39.227Z,3.00
2022-11-23T19:22:46.143Z,3.10
2022-11-23T19:27:54.037Z,3.20
2022-11-23T19:33:01.371Z,3.20
2022-11-23T19:38:10.563Z,3.30
2022-11-23T19:43:17.948Z,3.30
2022-11-23T19:48:26.200Z,3.20
2022-11-23T19:53:37.574Z,3.30
2022-11-23T19:58:45.526Z,3.30
2022-11-23T20:03:55.294Z,3.20
2022-11-23T20:09:05.551Z,3.10
2022-11-23T20:14:16.973Z,3.10
2022-11-23T20:19:24.173Z,3.10
2022-11-23T20:24:31.640Z,3.10
2022-11-23T20:29:38.447Z,3.00
2022-11-23T20:34:45.599Z,3.00
2022-11-23T20:39:53.954Z,3.00
2022-11-23T20:45:01.005Z,3.10
2022-11-23T20:50:10.285Z,3.00
2022-11-23T20:55:18.690Z,3.10
2022-11-23T21:00:27.216Z,3.10
2022-11-23T21:05:34.196Z,3.00
2022-11-23T21:10:59.216Z,3.00
2022-11-23T21:16:07.993Z,3.10
2022-11-23T21:21:14.984Z,3.00
2022-11-23T21:26:21.947Z,3.10
2022-11-23T21:31:30.417Z,3.20
2022-11-23T21:36:42.924Z,3.00
2022-11-23T21:41:51.664Z,3.00
2022-11-23T21:46:59.011Z,3.10
2022-11-23T21:52:06.797Z,3.10
2022-11-23T21:57:13.862Z,3.20
2022-11-23T22:02:20.536Z,3.20
2022-11-23T22:07:27.740Z,3.20
2022-11-23T22:12:34.573Z,3.30
2022-11-23T22:17:41.439Z,3.30
2022-11-23T22:22:48.513Z,3.30
2022-11-23T22:27:55.594Z,3.20
2022-11-23T22:33:02.467Z,3.20
2022-11-23T22:38:09.448Z,3.20
2022-11-23T22:43:16.692Z,3.20
2022-11-23T22:48:24.283Z,3.10
2022-11-23T22:53:32.498Z,3.00
2022-11-23T22:58:40.041Z,3.10
2022-11-23T23:03:47.946Z,3.10
2022-11-23T23:08:58.251Z,3.00
2022-11-23T23:14:05.282Z,3.10
2022-11-23T23:19:12.333Z,3.10
2022-11-23T23:24:19.217Z,2.80
2022-11-23T23:29:26.088Z,2.50
2022-11-23T23:34:33.370Z,2.50
2022-11-23T23:39:40.885Z,2.50
2022-11-23T23:44:48.043Z,2.50
2022-11-23T23:49:55.268Z,2.40
2022-11-23T23:55:02.490Z,2.50
